createdAt,value
2022-10-18T00:01:30.101Z,0.52
2022-10-18T00:03:57.211Z,0.30
2022-10-18T00:06:24.612Z,0.40
2022-10-18T00:08:51.824Z,0.40
2022-10-18T00:11:19.067Z,0.40
2022-10-18T00:13:46.278Z,0.30
2022-10-18T00:16:16.193Z,0.30
2022-10-18T00:18:44.209Z,0.30
2022-10-18T00:21:16.490Z,0.30
2022-10-18T00:23:44.557Z,0.40
2022-10-18T00:26:17.947Z,0.38
2022-10-18T00:28:45.796Z,0.40
2022-10-18T00:31:13.128Z,0.40
2022-10-18T00:33:40.627Z,0.93
2022-10-18T00:36:07.944Z,0.40
2022-10-18T00:38:35.030Z,0.32
2022-10-18T00:41:02.396Z,0.40
2022-10-18T00:43:29.638Z,0.40
2022-10-18T00:45:56.788Z,0.30
2022-10-18T00:48:24.350Z,0.40
2022-10-18T00:50:53.192Z,0.43
2022-10-18T00:53:23.355Z,0.38
2022-10-18T00:55:50.945Z,0.40
2022-10-18T00:58:19.994Z,0.43
2022-10-18T01:00:47.474Z,0.50
2022-10-18T01:03:14.656Z,0.50
2022-10-18T01:05:45.887Z,0.40
2022-10-18T01:08:24.648Z,0.30
2022-10-18T01:11:10.017Z,0.85
2022-10-18T01:14:02.526Z,0.40
2022-10-18T01:16:32.531Z,0.40
2022-10-18T01:19:41.540Z,0.30
2022-10-18T01:22:24.650Z,0.60
2022-10-18T01:46:58.479Z,0.50
2022-10-18T01:49:26.881Z,0.50
2022-10-18T01:51:54.074Z,0.32
2022-10-18T01:54:30.358Z,0.35
2022-10-18T01:57:02.406Z,0.30
2022-10-18T01:59:40.723Z,0.30
2022-10-18T02:02:26.062Z,0.40
2022-10-18T02:05:13.980Z,0.50
2022-10-18T02:08:12.423Z,0.60
2022-10-18T02:10:50.265Z,0.40
2022-10-18T02:13:21.470Z,0.50
2022-10-18T02:15:51.639Z,0.40
2022-10-18T02:18:24.622Z,0.35
2022-10-18T02:20:53.105Z,0.50
2022-10-18T02:23:23.734Z,0.30
2022-10-18T02:25:52.081Z,0.30
2022-10-18T02:28:20.270Z,0.40
2022-10-18T02:31:06.687Z,0.40
2022-10-18T02:33:36.970Z,0.50
2022-10-18T02:36:15.395Z,0.40
2022-10-18T02:38:45.723Z,0.38
2022-10-18T02:41:12.937Z,0.50
2022-10-18T02:43:40.213Z,0.47
2022-10-18T02:46:07.426Z,0.30
2022-10-18T02:48:34.680Z,0.40
2022-10-18T02:51:01.872Z,0.43
2022-10-18T02:53:29.272Z,0.50
2022-10-18T02:55:56.460Z,0.50
2022-10-18T02:58:23.629Z,0.40
2022-10-18T03:00:51.223Z,0.30
2022-10-18T03:03:18.389Z,0.70
2022-10-18T03:05:45.460Z,0.50
2022-10-18T03:08:12.577Z,0.50
2022-10-18T03:10:39.751Z,0.40
2022-10-18T03:13:06.865Z,0.50
2022-10-18T03:15:33.971Z,0.65
2022-10-18T03:18:01.125Z,0.30
2022-10-18T03:20:28.251Z,0.40
2022-10-18T03:22:55.604Z,0.40
2022-10-18T03:25:22.850Z,0.40
2022-10-18T03:27:50.039Z,0.70
2022-10-18T03:30:17.207Z,0.57
2022-10-18T03:32:44.428Z,0.30
2022-10-18T03:35:11.818Z,0.40
2022-10-18T03:37:38.965Z,0.40
2022-10-18T03:40:06.849Z,0.50
2022-10-18T03:42:34.353Z,0.50
2022-10-18T03:45:02.037Z,0.43
2022-10-18T03:47:29.295Z,0.30
2022-10-18T03:49:57.328Z,0.30
2022-10-18T03:52:24.777Z,0.38
2022-10-18T03:54:51.948Z,0.60
2022-10-18T03:57:19.210Z,0.60
2022-10-18T03:59:46.331Z,0.50
2022-10-18T04:02:13.418Z,0.40
2022-10-18T04:04:40.516Z,0.52
2022-10-18T04:07:07.661Z,0.52
2022-10-18T04:09:34.904Z,0.30
2022-10-18T04:12:02.025Z,0.45
2022-10-18T04:14:29.311Z,0.63
2022-10-18T04:16:56.465Z,0.50
2022-10-18T04:19:23.622Z,0.52
2022-10-18T04:21:50.804Z,0.57
2022-10-18T04:24:18.228Z,0.60
2022-10-18T04:26:45.534Z,0.63
2022-10-18T04:29:13.059Z,0.80
2022-10-18T04:31:40.303Z,0.70
2022-10-18T04:34:07.499Z,0.75
2022-10-18T04:36:34.648Z,0.77
2022-10-18T04:39:01.758Z,0.30
2022-10-18T04:41:28.945Z,0.70
2022-10-18T04:43:56.087Z,0.30
2022-10-18T04:46:23.191Z,0.38
2022-10-18T04:48:50.328Z,0.40
2022-10-18T04:51:17.507Z,0.30
2022-10-18T04:53:44.693Z,0.63
2022-10-18T04:56:11.885Z,0.47
2022-10-18T04:58:39.158Z,0.30
2022-10-18T05:01:07.706Z,0.63
2022-10-18T05:03:35.589Z,0.30
2022-10-18T05:06:03.621Z,0.40
2022-10-18T05:08:32.555Z,0.40
2022-10-18T05:11:00.592Z,0.30
2022-10-18T05:13:27.971Z,0.50
2022-10-18T05:15:55.420Z,0.30
2022-10-18T05:18:22.653Z,0.32
2022-10-18T05:20:49.819Z,0.30
2022-10-18T05:23:17.046Z,0.70
2022-10-18T05:25:44.574Z,0.40
2022-10-18T05:28:34.481Z,0.40
2022-10-18T05:31:04.301Z,0.63
2022-10-18T05:33:32.073Z,0.40
2022-10-18T05:35:59.471Z,0.47
2022-10-18T05:38:26.780Z,0.40
2022-10-18T05:40:53.979Z,0.47
2022-10-18T05:43:22.034Z,0.40
2022-10-18T05:45:52.328Z,0.40
2022-10-18T05:48:19.589Z,0.40
2022-10-18T05:50:46.726Z,0.40
2022-10-18T05:53:35.241Z,0.40
2022-10-18T05:56:02.582Z,0.50
2022-10-18T05:58:30.102Z,0.60
2022-10-18T06:01:04.414Z,0.40
2022-10-18T06:03:32.489Z,0.50
2022-10-18T06:06:04.969Z,0.40
2022-10-18T06:08:32.733Z,0.60
2022-10-18T06:10:59.966Z,0.60
2022-10-18T06:13:29.119Z,0.60
2022-10-18T06:15:58.437Z,0.60
2022-10-18T06:18:25.680Z,0.50
2022-10-18T06:20:59.808Z,0.75
2022-10-18T06:23:30.442Z,0.52
2022-10-18T06:26:02.778Z,0.60
2022-10-18T06:28:30.735Z,0.60
2022-10-18T06:30:58.653Z,0.88
2022-10-18T06:33:26.518Z,0.90
2022-10-18T06:35:59.214Z,0.68
2022-10-18T06:38:27.769Z,0.60
2022-10-18T06:40:56.694Z,0.82
2022-10-18T06:43:24.736Z,1.02
2022-10-18T06:45:52.634Z,0.93
2022-10-18T06:50:59.714Z,0.80
2022-10-18T06:53:32.389Z,0.93
2022-10-18T06:56:06.106Z,0.93
2022-10-18T06:58:33.658Z,0.90
2022-10-18T07:01:09.391Z,0.70
2022-10-18T07:03:37.186Z,0.77
2022-10-18T07:06:06.201Z,0.52
2022-10-18T07:08:33.838Z,0.60
2022-10-18T07:11:01.056Z,0.95
2022-10-18T07:13:32.814Z,0.70
2022-10-18T07:16:15.785Z,0.82
2022-10-18T07:18:49.708Z,0.60
2022-10-18T07:21:19.380Z,0.98
2022-10-18T07:23:47.559Z,1.00
2022-10-18T07:26:19.832Z,1.30
2022-10-18T07:28:50.333Z,1.38
2022-10-18T07:31:17.940Z,1.17
2022-10-18T07:33:45.355Z,1.08
2022-10-18T07:36:13.405Z,1.30
2022-10-18T07:38:41.387Z,1.20
2022-10-18T07:41:11.202Z,1.95
2022-10-18T07:43:43.381Z,1.13
2022-10-18T07:46:10.656Z,1.02
2022-10-18T07:48:37.899Z,1.30
2022-10-18T07:51:05.946Z,1.52
2022-10-18T07:53:34.911Z,1.15
2022-10-18T07:56:07.182Z,1.25
2022-10-18T07:58:37.640Z,0.90
2022-10-18T08:01:06.769Z,1.15
2022-10-18T08:03:34.364Z,1.05
2022-10-18T08:06:02.296Z,1.00
2022-10-18T08:08:30.530Z,0.95
2022-10-18T08:11:05.793Z,1.00
2022-10-18T08:13:33.758Z,1.10
2022-10-18T08:16:03.287Z,1.02
2022-10-18T08:18:30.696Z,1.10
2022-10-18T08:21:00.570Z,1.60
2022-10-18T08:23:27.879Z,1.17
2022-10-18T08:25:55.409Z,0.98
2022-10-18T08:28:22.914Z,0.85
2022-10-18T08:30:50.056Z,1.33
2022-10-18T08:33:17.307Z,1.13
2022-10-18T08:35:44.563Z,1.40
2022-10-18T08:38:16.565Z,0.93
2022-10-18T08:40:46.226Z,1.02
2022-10-18T08:43:26.705Z,0.60
2022-10-18T08:45:54.940Z,0.70
2022-10-18T08:48:43.962Z,1.02
2022-10-18T08:51:30.228Z,1.10
2022-10-18T08:54:14.821Z,0.70
2022-10-18T08:56:47.003Z,0.82
2022-10-18T08:59:14.767Z,0.85
2022-10-18T09:01:51.412Z,1.15
2022-10-18T09:04:32.881Z,0.98
2022-10-18T09:07:09.238Z,0.70
2022-10-18T09:10:18.104Z,0.70
2022-10-18T09:13:27.419Z,1.10
2022-10-18T09:16:08.639Z,1.00
2022-10-18T09:18:57.860Z,0.80
2022-10-18T09:22:00.739Z,1.40
2022-10-18T09:24:41.393Z,0.80
2022-10-18T09:31:39.469Z,0.82
2022-10-18T09:34:36.570Z,1.05
2022-10-18T09:37:04.498Z,0.93
2022-10-18T09:39:36.998Z,1.30
2022-10-18T09:42:29.886Z,1.08
2022-10-18T09:45:00.774Z,0.82
2022-10-18T09:47:39.331Z,0.80
2022-10-18T09:50:30.427Z,1.42
2022-10-18T09:53:37.625Z,1.10
2022-10-18T09:56:04.856Z,1.00
2022-10-18T09:58:43.145Z,1.08
2022-10-18T10:01:32.442Z,0.98
2022-10-18T10:03:59.739Z,1.25
2022-10-18T10:06:30.823Z,1.10
2022-10-18T10:08:59.694Z,1.10
2022-10-18T10:11:38.537Z,0.93
2022-10-18T10:14:12.486Z,0.85
2022-10-18T10:17:02.766Z,1.30
2022-10-18T10:19:57.167Z,1.80
2022-10-18T10:23:16.591Z,1.00
2022-10-18T10:25:44.077Z,1.00
2022-10-18T10:28:27.802Z,1.08
2022-10-18T10:30:55.090Z,0.98
2022-10-18T10:33:38.288Z,1.38
2022-10-18T10:36:16.556Z,1.33
2022-10-18T10:38:44.386Z,1.08
2022-10-18T10:41:23.388Z,1.15
2022-10-18T10:43:51.616Z,1.73
2022-10-18T10:46:20.563Z,1.42
2022-10-18T10:48:50.501Z,1.58
2022-10-18T10:51:29.452Z,1.50
2022-10-18T10:54:22.108Z,1.67
2022-10-18T10:57:01.317Z,1.70
2022-10-18T10:59:56.470Z,1.38
2022-10-18T11:02:35.773Z,1.45
2022-10-18T11:05:34.524Z,1.38
2022-10-18T11:08:13.366Z,1.58
2022-10-18T11:11:00.707Z,1.00
2022-10-18T11:14:20.972Z,1.45
2022-10-18T11:16:58.900Z,0.90
2022-10-18T11:19:46.632Z,1.40
2022-10-18T11:22:23.285Z,1.25
2022-10-18T11:24:59.177Z,1.38
2022-10-18T11:27:32.244Z,1.20
2022-10-18T11:30:14.724Z,1.38
2022-10-18T11:32:57.354Z,1.17
2022-10-18T11:35:50.629Z,1.30
2022-10-18T11:38:52.436Z,1.27
2022-10-18T11:41:26.291Z,1.13
2022-10-18T11:44:03.540Z,1.33
2022-10-18T11:47:13.269Z,1.48
2022-10-18T11:50:08.008Z,1.30
2022-10-18T11:52:59.028Z,0.98
2022-10-18T11:55:40.732Z,1.65
2022-10-18T11:58:29.379Z,1.10
2022-10-18T12:01:24.681Z,1.42
2022-10-18T12:04:02.386Z,0.98
2022-10-18T12:06:35.293Z,1.20
2022-10-18T12:09:10.961Z,1.10
2022-10-18T12:11:47.443Z,0.93
2022-10-18T12:14:32.957Z,0.98
2022-10-18T12:17:40.775Z,1.02
2022-10-18T12:19:58.457Z,1.00
2022-10-18T12:22:50.093Z,0.90
2022-10-18T12:25:18.495Z,1.10
2022-10-18T12:27:48.796Z,1.15
2022-10-18T12:30:34.517Z,1.08
2022-10-18T12:33:33.719Z,1.00
2022-10-18T12:36:07.113Z,1.30
2022-10-18T12:38:42.458Z,1.02
2022-10-18T12:45:20.046Z,0.93
2022-10-18T12:47:47.500Z,0.98
2022-10-18T12:50:44.321Z,1.35
2022-10-18T12:53:27.476Z,1.20
2022-10-18T12:56:31.039Z,1.48
2022-10-18T12:59:27.243Z,1.42
2022-10-18T13:01:54.645Z,1.23
2022-10-18T13:04:29.192Z,1.27
2022-10-18T13:07:05.469Z,1.40
2022-10-18T13:09:36.564Z,1.10
2022-10-18T13:12:06.779Z,1.38
2022-10-18T13:14:35.684Z,1.52
2022-10-18T13:17:37.387Z,1.92
2022-10-18T13:20:44.105Z,1.10
2022-10-18T13:23:23.664Z,1.80
2022-10-18T13:26:13.073Z,1.38
2022-10-18T13:28:55.417Z,2.35
2022-10-18T13:31:28.616Z,0.90
2022-10-18T13:33:56.341Z,0.95
2022-10-18T13:36:25.456Z,1.10
2022-10-18T13:38:55.890Z,1.05
2022-10-18T13:41:28.289Z,1.00
2022-10-18T13:44:03.022Z,0.98
2022-10-18T13:46:33.458Z,1.20
2022-10-18T13:49:21.956Z,0.98
2022-10-18T13:52:07.586Z,1.00
2022-10-18T13:55:12.615Z,1.30
2022-10-18T13:57:45.708Z,0.80
2022-10-18T14:00:50.899Z,0.85
2022-10-18T14:03:56.337Z,0.80
2022-10-18T14:06:24.115Z,1.38
2022-10-18T14:09:26.219Z,1.58
2022-10-18T14:12:22.358Z,1.00
2022-10-18T14:15:10.572Z,1.00
2022-10-18T14:17:46.932Z,0.90
2022-10-18T14:20:29.279Z,0.93
2022-10-18T14:23:23.974Z,1.17
2022-10-18T14:25:51.426Z,0.98
2022-10-18T14:28:31.540Z,1.55
2022-10-18T14:31:07.445Z,1.05
2022-10-18T14:33:39.848Z,1.25
2022-10-18T14:36:22.333Z,1.00
2022-10-18T14:38:56.890Z,0.88
2022-10-18T14:41:29.797Z,0.70
2022-10-18T14:44:21.404Z,0.90
2022-10-18T14:47:10.942Z,0.93
2022-10-18T14:49:46.671Z,0.90
2022-10-18T14:52:35.105Z,0.70
2022-10-18T14:55:03.175Z,1.10
2022-10-18T14:57:40.275Z,1.70
2022-10-18T15:00:21.888Z,1.30
2022-10-18T15:02:50.060Z,1.00
2022-10-18T15:05:17.169Z,2.15
2022-10-18T15:07:45.013Z,1.05
2022-10-18T15:10:19.530Z,0.98
2022-10-18T15:13:12.375Z,1.02
2022-10-18T15:15:35.655Z,0.85
2022-10-18T15:18:37.809Z,1.50
2022-10-18T15:21:22.715Z,1.23
2022-10-18T15:23:51.709Z,1.30
2022-10-18T15:26:26.763Z,1.25
2022-10-18T15:28:56.916Z,0.80
2022-10-18T15:31:36.633Z,1.38
2022-10-18T15:34:27.810Z,0.55
2022-10-18T15:36:56.317Z,1.40
2022-10-18T15:39:26.539Z,0.90
2022-10-18T15:41:56.833Z,0.80
2022-10-18T15:44:31.659Z,0.77
2022-10-18T15:47:21.242Z,0.90
2022-10-18T15:50:01.629Z,1.40
2022-10-18T15:52:43.542Z,1.00
2022-10-18T15:55:29.366Z,1.00
2022-10-18T15:58:18.162Z,1.27
2022-10-18T16:00:49.743Z,1.55
2022-10-18T16:03:19.644Z,1.63
2022-10-18T16:05:46.899Z,1.30
2022-10-18T16:08:20.825Z,0.90
2022-10-18T16:10:48.174Z,1.33
2022-10-18T16:13:15.364Z,1.10
2022-10-18T16:15:42.714Z,1.95
2022-10-18T16:18:15.591Z,0.90
2022-10-18T16:20:52.147Z,0.90
2022-10-18T16:26:06.688Z,1.25
2022-10-18T16:28:34.269Z,1.00
2022-10-18T16:31:04.029Z,1.40
2022-10-18T16:33:31.611Z,1.40
2022-10-18T16:35:59.265Z,1.50
2022-10-18T16:38:35.201Z,1.17
2022-10-18T16:41:07.478Z,1.83
2022-10-18T16:43:35.565Z,1.35
2022-10-18T16:46:04.231Z,1.80
2022-10-18T16:48:31.400Z,1.45
2022-10-18T16:50:59.413Z,1.30
2022-10-18T16:53:28.154Z,1.42
2022-10-18T16:56:00.842Z,0.82
2022-10-18T16:58:30.172Z,1.88
2022-10-18T17:00:58.728Z,2.30
2022-10-18T17:03:26.694Z,1.10
2022-10-18T17:05:54.541Z,2.10
2022-10-18T17:08:25.773Z,1.27
2022-10-18T17:10:55.543Z,1.00
2022-10-18T17:13:23.967Z,1.00
2022-10-18T17:15:52.405Z,0.77
2022-10-18T17:18:22.604Z,1.15
2022-10-18T17:20:50.659Z,1.67
2022-10-18T17:23:18.124Z,2.22
2022-10-18T17:25:57.847Z,1.70
2022-10-18T17:28:33.868Z,1.88
2022-10-18T17:31:01.341Z,1.30
2022-10-18T17:33:28.515Z,1.95
2022-10-18T17:35:55.775Z,2.55
2022-10-18T17:38:22.964Z,1.20
2022-10-18T17:40:52.758Z,1.70
2022-10-18T17:43:20.150Z,1.80
2022-10-18T17:45:57.017Z,1.80
2022-10-18T17:48:24.776Z,1.33
2022-10-18T17:50:51.947Z,1.00
2022-10-18T17:53:23.015Z,0.90
2022-10-18T17:55:50.272Z,1.63
2022-10-18T17:58:17.577Z,6.57
2022-10-18T18:00:44.746Z,8.43
2022-10-18T18:03:12.331Z,10.77
2022-10-18T18:05:39.579Z,10.45
2022-10-18T18:08:06.752Z,6.32
2022-10-18T18:10:34.765Z,3.30
2022-10-18T18:13:02.680Z,2.83
2022-10-18T18:15:29.901Z,2.40
2022-10-18T18:17:58.031Z,2.58
2022-10-18T18:20:26.466Z,5.03
2022-10-18T18:22:53.886Z,3.42
2022-10-18T18:25:21.268Z,2.90
2022-10-18T18:27:48.378Z,2.35
2022-10-18T18:30:18.004Z,1.80
2022-10-18T18:32:45.366Z,1.52
2022-10-18T18:35:12.688Z,1.80
2022-10-18T18:37:39.895Z,2.28
2022-10-18T18:40:08.184Z,1.67
2022-10-18T18:42:35.708Z,1.38
2022-10-18T18:45:03.243Z,1.90
2022-10-18T18:47:30.893Z,1.58
2022-10-18T18:49:58.743Z,1.63
2022-10-18T18:52:26.791Z,1.60
2022-10-18T18:54:54.377Z,2.72
2022-10-18T18:57:21.899Z,1.70
2022-10-18T18:59:49.709Z,1.08
2022-10-18T19:02:17.031Z,1.40
2022-10-18T19:04:45.067Z,1.35
2022-10-18T19:07:15.598Z,1.30
2022-10-18T19:09:44.780Z,1.20
2022-10-18T19:12:12.244Z,1.10
2022-10-18T19:14:39.676Z,1.63
2022-10-18T19:17:08.120Z,1.05
2022-10-18T19:19:36.228Z,1.48
2022-10-18T19:22:09.928Z,1.05
2022-10-18T19:24:38.210Z,1.10
2022-10-18T19:27:11.991Z,1.08
2022-10-18T19:29:41.262Z,0.98
2022-10-18T19:32:12.685Z,1.30
2022-10-18T19:34:40.640Z,1.00
2022-10-18T19:37:09.600Z,1.00
2022-10-18T19:39:37.074Z,0.80
2022-10-18T19:42:07.481Z,1.13
2022-10-18T19:44:36.940Z,1.27
2022-10-18T19:47:05.865Z,2.03
2022-10-18T19:49:33.597Z,2.40
2022-10-18T19:52:00.874Z,2.50
2022-10-18T19:54:28.476Z,3.15
2022-10-18T19:56:56.139Z,6.85
2022-10-18T19:59:24.493Z,5.50
2022-10-18T20:01:51.997Z,3.03
2022-10-18T20:04:19.447Z,2.15
2022-10-18T20:06:46.804Z,1.83
2022-10-18T20:09:19.319Z,2.60
2022-10-18T20:11:48.382Z,2.30
2022-10-18T20:14:15.684Z,1.83
2022-10-18T20:16:45.873Z,1.45
2022-10-18T20:19:15.962Z,1.23
2022-10-18T20:21:46.322Z,1.27
2022-10-18T20:24:16.039Z,1.08
2022-10-18T20:26:43.875Z,1.00
2022-10-18T20:29:11.788Z,1.23
2022-10-18T20:31:39.511Z,0.93
2022-10-18T20:34:11.071Z,1.05
2022-10-18T20:36:38.627Z,0.90
2022-10-18T20:39:07.368Z,0.85
2022-10-18T20:41:41.424Z,0.95
2022-10-18T20:44:13.718Z,1.40
2022-10-18T20:46:41.972Z,1.00
2022-10-18T20:49:11.533Z,1.60
2022-10-18T20:51:39.162Z,1.10
2022-10-18T20:54:07.701Z,1.27
2022-10-18T20:56:36.860Z,1.05
2022-10-18T20:59:06.353Z,1.20
2022-10-18T21:01:38.647Z,1.15
2022-10-18T21:04:11.115Z,1.63
2022-10-18T21:06:46.859Z,1.20
2022-10-18T21:09:16.676Z,1.23
2022-10-18T21:11:51.858Z,1.10
2022-10-18T21:14:24.695Z,1.20
2022-10-18T21:17:17.443Z,1.02
2022-10-18T21:19:44.789Z,0.98
2022-10-18T21:22:12.195Z,0.90
2022-10-18T21:24:40.909Z,1.75
2022-10-18T21:27:08.099Z,1.15
2022-10-18T21:29:35.773Z,1.10
2022-10-18T21:32:03.323Z,0.82
2022-10-18T21:34:30.661Z,0.90
2022-10-18T21:36:57.930Z,0.90
2022-10-18T21:39:27.731Z,1.15
2022-10-18T21:41:57.634Z,1.45
2022-10-18T21:44:25.379Z,1.38
2022-10-18T21:46:52.893Z,0.90
2022-10-18T21:49:20.476Z,1.13
2022-10-18T21:51:50.187Z,1.05
2022-10-18T21:54:17.807Z,1.13
2022-10-18T21:56:45.840Z,0.90
2022-10-18T21:59:13.809Z,1.77
2022-10-18T22:01:41.104Z,1.30
2022-10-18T22:04:22.301Z,0.80
2022-10-18T22:06:50.971Z,1.10
2022-10-18T22:09:21.131Z,1.52
2022-10-18T22:29:14.571Z,0.75
2022-10-18T22:31:45.322Z,0.90
2022-10-18T22:34:18.826Z,0.90
2022-10-18T22:36:46.451Z,0.93
2022-10-18T22:39:15.404Z,0.98
2022-10-18T22:41:43.594Z,1.13
2022-10-18T22:44:14.879Z,1.00
2022-10-18T22:46:42.441Z,0.68
2022-10-18T22:49:09.757Z,0.93
2022-10-18T22:51:37.241Z,0.82
2022-10-18T22:54:04.854Z,0.60
2022-10-18T22:56:32.062Z,0.77
2022-10-18T22:58:59.381Z,0.70
2022-10-18T23:01:26.786Z,0.70
2022-10-18T23:04:00.568Z,0.80
2022-10-18T23:06:30.436Z,0.80
2022-10-18T23:08:59.873Z,0.70
2022-10-18T23:11:29.044Z,0.60
2022-10-18T23:13:56.782Z,0.90
2022-10-18T23:16:24.859Z,0.75
2022-10-18T23:18:54.160Z,0.82
2022-10-18T23:21:24.490Z,0.95
2022-10-18T23:23:53.517Z,0.65
2022-10-18T23:26:24.009Z,1.00
2022-10-18T23:28:55.774Z,1.40
2022-10-18T23:31:26.585Z,0.80
2022-10-18T23:33:57.055Z,0.70
2022-10-18T23:36:24.842Z,1.20
2022-10-18T23:38:53.494Z,1.25
2022-10-18T23:41:20.954Z,1.52
2022-10-18T23:43:48.818Z,0.90
2022-10-18T23:46:17.864Z,1.00
2022-10-18T23:48:46.831Z,0.95
2022-10-18T23:51:15.332Z,1.05
2022-10-18T23:53:43.588Z,0.80
2022-10-18T23:56:14.220Z,0.80
2022-10-18T23:58:42.772Z,0.85
